Time;durP1;ratioP1;P1;durP2;ratioP2;P2;SDS_P1;SDS_P2;PMS_P1;PMS_P2;Temp;Humidity;BMP_temperature;BMP_pressure;BME280_temperature;BME280_humidity;BME280_pressure;Samples;Min_cycle;Max_cycle;Signal;HPM_P1;HPM_P2
2022/02/24 00:00:25;;;;;;;0.80;0.50;;;6.70;1.00;;;;;;5055117;28;20777;-52
2022/02/24 00:02:54;;;;;;;0.80;0.50;;;6.60;1.00;;;;;;5054822;28;20432;-53
2022/02/24 00:05:20;;;;;;;1.33;0.60;;;6.60;1.00;;;;;;5057944;28;20485;-51
2022/02/24 00:07:47;;;;;;;0.90;0.60;;;6.60;1.00;;;;;;5058451;28;20523;-53
2022/02/24 00:10:17;;;;;;;1.08;0.60;;;6.60;1.00;;;;;;5057408;28;20793;-53
2022/02/24 00:12:44;;;;;;;1.00;0.60;;;6.60;1.00;;;;;;5057864;28;20705;-52
2022/02/24 00:15:11;;;;;;;1.15;0.60;;;6.60;1.00;;;;;;5057503;28;20840;-51
2022/02/24 00:17:39;;;;;;;0.90;0.50;;;6.60;1.00;;;;;;5058272;28;20452;-50
2022/02/24 00:20:09;;;;;;;0.90;0.50;;;6.70;1.00;;;;;;5057455;28;20921;-52
2022/02/24 00:22:36;;;;;;;0.85;0.50;;;6.70;1.00;;;;;;5057816;28;20435;-51
2022/02/24 00:25:04;;;;;;;0.90;0.60;;;6.80;1.00;;;;;;5057873;28;20429;-53
2022/02/24 00:27:31;;;;;;;0.80;0.50;;;6.90;1.00;;;;;;5058004;28;20844;-53
2022/02/24 00:29:58;;;;;;;0.90;0.60;;;6.90;1.00;;;;;;5058033;28;20417;-51
2022/02/24 00:32:25;;;;;;;0.70;0.50;;;7.00;1.00;;;;;;5057831;28;20733;-53
2022/02/24 00:34:51;;;;;;;0.80;0.50;;;7.00;1.00;;;;;;5057711;28;20417;-48
2022/02/24 00:37:20;;;;;;;0.80;0.50;;;7.00;1.00;;;;;;5057730;28;20440;-49
2022/02/24 00:39:46;;;;;;;0.90;0.50;;;7.10;1.00;;;;;;5056945;28;20425;-48
2022/02/24 00:42:13;;;;;;;1.10;0.50;;;7.10;1.00;;;;;;5057058;28;20429;-53
2022/02/24 00:44:40;;;;;;;1.52;0.60;;;7.10;1.00;;;;;;5056583;28;20504;-53
2022/02/24 00:47:07;;;;;;;0.80;0.50;;;7.20;1.00;;;;;;5056752;28;20708;-53
2022/02/24 00:49:35;;;;;;;1.15;0.50;;;7.20;1.00;;;;;;5055612;28;20812;-52
2022/02/24 00:52:01;;;;;;;1.80;0.50;;;7.20;1.00;;;;;;5056657;28;20433;-51
2022/02/24 00:54:30;;;;;;;0.80;0.60;;;7.20;1.00;;;;;;5056822;28;20425;-53
2022/02/24 00:56:56;;;;;;;0.80;0.50;;;7.20;1.00;;;;;;5057014;28;20708;-54
2022/02/24 00:59:23;;;;;;;1.00;0.50;;;7.20;1.00;;;;;;5056998;28;20427;-52
2022/02/24 01:01:50;;;;;;;0.70;0.50;;;7.20;1.00;;;;;;5057260;28;20425;-49
2022/02/24 01:04:17;;;;;;;0.70;0.50;;;7.20;1.00;;;;;;5057103;28;20421;-52
2022/02/24 01:06:44;;;;;;;0.80;0.50;;;7.20;1.00;;;;;;5056912;28;20437;-47
2022/02/24 01:09:11;;;;;;;0.80;0.50;;;7.30;1.00;;;;;;5057067;28;20424;-48
2022/02/24 01:11:40;;;;;;;1.30;0.50;;;7.40;99.90;;;;;;5056252;28;20429;-50
2022/02/24 01:14:06;;;;;;;0.80;0.50;;;7.40;1.00;;;;;;5055527;28;20727;-47
2022/02/24 01:16:34;;;;;;;0.70;0.50;;;7.40;1.00;;;;;;5055959;28;20828;-51
2022/02/24 01:19:00;;;;;;;0.70;0.40;;;7.40;1.00;;;;;;5056766;28;20878;-49
2022/02/24 01:21:28;;;;;;;0.85;0.40;;;7.40;1.00;;;;;;5056870;28;20421;-54
2022/02/24 01:23:55;;;;;;;1.00;0.40;;;7.30;1.00;;;;;;5056961;28;20483;-51
2022/02/24 01:26:22;;;;;;;0.73;0.43;;;7.40;1.00;;;;;;5056813;28;20429;-52
2022/02/24 01:28:50;;;;;;;0.60;0.40;;;7.40;1.00;;;;;;5056283;28;20516;-52
2022/02/24 01:31:17;;;;;;;0.80;0.40;;;7.40;1.00;;;;;;5055401;28;20433;-50
2022/02/24 01:33:43;;;;;;;0.60;0.40;;;7.30;1.00;;;;;;5055687;28;20724;-53
2022/02/24 01:36:10;;;;;;;1.10;0.50;;;7.40;1.00;;;;;;5055110;28;20698;-53
2022/02/24 01:38:39;;;;;;;1.40;0.50;;;7.40;1.00;;;;;;5053875;28;20560;-52
2022/02/24 01:41:06;;;;;;;1.10;0.50;;;7.40;1.00;;;;;;5052477;28;20429;-54
2022/02/24 01:43:34;;;;;;;0.70;0.40;;;7.40;1.00;;;;;;5054178;28;20483;-53
2022/02/24 01:46:02;;;;;;;1.00;0.50;;;7.40;1.00;;;;;;5054607;28;20437;-53
2022/02/24 01:48:29;;;;;;;1.23;0.40;;;7.40;1.00;;;;;;5055160;28;20424;-49
2022/02/24 01:50:56;;;;;;;1.00;0.50;;;7.40;1.00;;;;;;5055647;28;20435;-48
2022/02/24 01:53:23;;;;;;;1.30;0.50;;;7.30;1.00;;;;;;5056610;28;20429;-49
2022/02/24 01:55:50;;;;;;;0.65;0.40;;;7.20;1.00;;;;;;5056196;28;20425;-49
2022/02/24 01:58:18;;;;;;;0.77;0.50;;;7.20;1.00;;;;;;5056319;28;20428;-49
2022/02/24 02:00:45;;;;;;;0.80;0.50;;;7.10;1.00;;;;;;5056370;28;20868;-47
2022/02/24 02:03:13;;;;;;;0.80;0.50;;;7.00;1.00;;;;;;5056422;28;20503;-51
2022/02/24 02:05:40;;;;;;;0.80;0.50;;;7.00;1.00;;;;;;5056248;28;20710;-53
2022/02/24 02:08:07;;;;;;;1.40;0.50;;;6.90;1.00;;;;;;5056164;28;20418;-52
2022/02/24 02:10:34;;;;;;;0.80;0.50;;;6.80;1.00;;;;;;5054786;28;20794;-53
2022/02/24 02:13:01;;;;;;;0.80;0.50;;;6.80;1.00;;;;;;5055229;28;20819;-53
2022/02/24 02:15:28;;;;;;;1.00;0.50;;;6.70;1.00;;;;;;5055181;28;20713;-48
2022/02/24 02:17:55;;;;;;;1.10;0.60;;;6.70;1.00;;;;;;5054939;28;20427;-53
2022/02/24 02:20:23;;;;;;;0.75;0.40;;;6.70;1.00;;;;;;5055149;28;20428;-52
2022/02/24 02:22:53;;;;;;;2.00;0.60;;;6.70;1.00;;;;;;5054945;28;20437;-52
2022/02/24 02:25:20;;;;;;;1.60;0.50;;;6.60;1.00;;;;;;5055151;28;20495;-53
2022/02/24 02:27:48;;;;;;;2.90;0.60;;;6.60;1.00;;;;;;5055065;28;20767;-48
2022/02/24 02:30:16;;;;;;;0.80;0.40;;;6.60;1.00;;;;;;5055608;28;20417;-47
2022/02/24 02:32:43;;;;;;;0.80;0.50;;;6.60;1.00;;;;;;5055210;28;20425;-52
2022/02/24 02:35:10;;;;;;;1.15;0.60;;;6.70;1.00;;;;;;5056104;28;20418;-54
2022/02/24 02:37:38;;;;;;;0.90;0.50;;;6.60;1.00;;;;;;5055679;28;20425;-51
2022/02/24 02:40:07;;;;;;;1.80;0.60;;;6.60;1.00;;;;;;5055611;28;20834;-51
2022/02/24 02:42:34;;;;;;;1.20;0.55;;;6.60;1.00;;;;;;5055607;28;20698;-50
2022/02/24 02:45:02;;;;;;;0.90;0.60;;;6.60;1.00;;;;;;5055267;28;20433;-50
2022/02/24 02:47:29;;;;;;;0.80;0.60;;;6.60;1.00;;;;;;5055272;28;20507;-54
2022/02/24 02:49:55;;;;;;;1.00;0.60;;;6.60;1.00;;;;;;5055383;28;20836;-53
2022/02/24 02:52:23;;;;;;;1.30;0.60;;;6.70;1.00;;;;;;5055383;28;20712;-52
2022/02/24 02:54:53;;;;;;;1.70;0.60;;;6.70;1.00;;;;;;5055149;28;20713;-53
2022/02/24 02:57:21;;;;;;;1.00;0.60;;;6.70;1.00;;;;;;5054952;28;20425;-54
2022/02/24 02:59:48;;;;;;;1.27;0.50;;;6.80;1.00;;;;;;5055309;28;20721;-53
2022/02/24 03:02:15;;;;;;;1.60;0.50;;;6.80;1.00;;;;;;5055184;28;20425;-51
2022/02/24 03:04:42;;;;;;;0.80;0.50;;;6.90;1.00;;;;;;5054944;28;20432;-50
2022/02/24 03:07:08;;;;;;;1.20;0.60;;;7.00;1.00;;;;;;5055056;28;20931;-52
2022/02/24 03:09:36;;;;;;;0.93;0.60;;;6.90;1.00;;;;;;5055148;28;20425;-52
2022/02/24 03:12:03;;;;;;;0.88;0.60;;;6.90;1.00;;;;;;5054920;28;20437;-49
2022/02/24 03:14:31;;;;;;;1.10;0.50;;;6.90;1.00;;;;;;5054896;28;20712;-48
2022/02/24 03:16:58;;;;;;;0.90;0.60;;;6.90;1.00;;;;;;5054950;28;20448;-51
2022/02/24 03:19:25;;;;;;;0.98;0.50;;;6.90;1.00;;;;;;5054711;28;20425;-47
2022/02/24 03:21:52;;;;;;;1.30;0.60;;;7.00;1.00;;;;;;5055267;28;20720;-48
2022/02/24 03:24:19;;;;;;;0.90;0.50;;;7.00;1.00;;;;;;5054772;28;20524;-50
2022/02/24 03:26:46;;;;;;;0.93;0.50;;;6.90;1.00;;;;;;5055283;28;20438;-49
2022/02/24 03:29:12;;;;;;;1.00;0.50;;;6.90;1.00;;;;;;5055200;28;20417;-52
2022/02/24 03:31:41;;;;;;;0.70;0.50;;;6.90;1.00;;;;;;5054594;28;20433;-52
2022/02/24 03:34:08;;;;;;;0.70;0.50;;;6.90;1.00;;;;;;5054729;28;20539;-52
2022/02/24 03:36:35;;;;;;;0.63;0.40;;;7.00;1.00;;;;;;5055123;28;20502;-53
2022/02/24 03:39:02;;;;;;;0.77;0.50;;;7.00;1.00;;;;;;5057583;28;20423;-51
2022/02/24 03:41:29;;;;;;;0.80;0.50;;;7.10;1.00;;;;;;5058781;28;20476;-51
2022/02/24 03:43:56;;;;;;;0.80;0.50;;;7.10;1.00;;;;;;5059164;28;20707;-52
2022/02/24 03:46:23;;;;;;;1.30;0.60;;;7.20;1.00;;;;;;5058814;28;20437;-55
2022/02/24 03:48:51;;;;;;;0.80;0.40;;;7.20;1.00;;;;;;5058773;28;20447;-52
2022/02/24 03:51:18;;;;;;;1.73;0.50;;;7.30;1.00;;;;;;5058703;28;20440;-51
2022/02/24 03:53:45;;;;;;;0.80;0.50;;;7.30;1.00;;;;;;5059109;28;20497;-52
2022/02/24 03:56:12;;;;;;;2.00;0.40;;;7.30;1.00;;;;;;5058645;28;20862;-50
2022/02/24 03:58:39;;;;;;;1.20;0.50;;;7.30;1.00;;;;;;5058824;28;20520;-51
2022/02/24 04:01:06;;;;;;;0.80;0.40;;;7.30;1.00;;;;;;5058645;28;20825;-51
2022/02/24 04:03:33;;;;;;;0.87;0.50;;;7.20;1.00;;;;;;5058567;28;20424;-47
2022/02/24 04:06:01;;;;;;;1.37;0.50;;;7.20;1.00;;;;;;5058377;28;20443;-50
2022/02/24 04:08:28;;;;;;;0.70;0.50;;;7.20;1.00;;;;;;5058315;28;20423;-47
2022/02/24 04:10:55;;;;;;;1.20;0.50;;;7.30;1.00;;;;;;5058722;28;20724;-53
2022/02/24 04:13:22;;;;;;;0.90;0.40;;;7.40;1.00;;;;;;5058715;28;20418;-52
2022/02/24 04:15:49;;;;;;;0.90;0.50;;;7.40;1.00;;;;;;5058463;28;20531;-50
2022/02/24 04:18:16;;;;;;;0.70;0.40;;;7.40;1.00;;;;;;5058156;28;20731;-54
2022/02/24 04:20:43;;;;;;;1.75;0.50;;;7.30;1.00;;;;;;5058237;28;20417;-53
2022/02/24 04:23:11;;;;;;;0.80;0.50;;;7.40;1.00;;;;;;5058030;28;20421;-47
2022/02/24 04:25:38;;;;;;;0.75;0.50;;;7.30;1.00;;;;;;5057563;28;20500;-49
2022/02/24 04:28:05;;;;;;;0.93;0.40;;;7.30;1.00;;;;;;5057375;28;20421;-51
2022/02/24 04:30:32;;;;;;;0.90;0.50;;;7.20;1.00;;;;;;5057703;28;20728;-48
2022/02/24 04:32:59;;;;;;;1.15;0.60;;;7.20;1.00;;;;;;5057508;28;20428;-52
2022/02/24 04:35:26;;;;;;;1.40;0.50;;;7.10;1.00;;;;;;5056917;28;20424;-51
2022/02/24 04:37:53;;;;;;;0.70;0.47;;;7.10;1.00;;;;;;5056129;28;20835;-49
2022/02/24 04:40:21;;;;;;;1.08;0.43;;;7.10;1.00;;;;;;5055942;28;20439;-48
2022/02/24 04:42:48;;;;;;;1.00;0.50;;;7.10;1.00;;;;;;5055918;28;20702;-51
2022/02/24 04:45:15;;;;;;;0.60;0.50;;;7.00;1.00;;;;;;5056349;28;20421;-52
2022/02/24 04:47:42;;;;;;;0.90;0.50;;;7.00;1.00;;;;;;5057070;28;20433;-51
2022/02/24 04:50:10;;;;;;;0.90;0.50;;;7.00;1.00;;;;;;5056418;28;20422;-53
2022/02/24 04:52:37;;;;;;;0.73;0.50;;;7.00;1.00;;;;;;5057601;28;20867;-50
2022/02/24 04:55:05;;;;;;;1.40;0.60;;;7.00;1.00;;;;;;5057184;28;20464;-50
2022/02/24 04:57:33;;;;;;;1.10;0.50;;;7.00;1.00;;;;;;5057435;28;20849;-54
2022/02/24 05:00:00;;;;;;;0.70;0.40;;;7.00;1.00;;;;;;5057208;28;20421;-50
2022/02/24 05:02:27;;;;;;;0.90;0.50;;;7.00;1.00;;;;;;5057362;28;20428;-48
2022/02/24 05:04:54;;;;;;;0.70;0.50;;;7.00;1.00;;;;;;5056059;28;20461;-53
2022/02/24 05:07:21;;;;;;;1.50;0.50;;;7.00;1.00;;;;;;5055615;28;20437;-52
2022/02/24 05:09:48;;;;;;;1.00;0.50;;;7.00;1.00;;;;;;5055744;28;20508;-55
2022/02/24 05:12:15;;;;;;;1.20;0.50;;;6.90;1.00;;;;;;5055328;28;20501;-54
2022/02/24 05:14:43;;;;;;;0.80;0.50;;;6.90;1.00;;;;;;5054701;28;20891;-51
2022/02/24 05:17:09;;;;;;;1.60;0.50;;;6.90;1.00;;;;;;5054745;28;20413;-51
2022/02/24 05:19:36;;;;;;;0.82;0.50;;;6.80;1.00;;;;;;5055199;28;20428;-53
2022/02/24 05:22:04;;;;;;;0.80;0.50;;;6.70;1.00;;;;;;5055806;28;20528;-53
2022/02/24 05:24:30;;;;;;;1.20;0.55;;;6.70;1.00;;;;;;5055725;28;20417;-52
2022/02/24 05:26:57;;;;;;;1.20;0.60;;;6.80;1.00;;;;;;5055526;28;20747;-49
2022/02/24 05:29:24;;;;;;;1.00;0.60;;;6.80;1.00;;;;;;5056449;28;20437;-50
2022/02/24 05:31:52;;;;;;;1.00;0.60;;;6.70;1.00;;;;;;5054001;28;20433;-53
2022/02/24 05:34:19;;;;;;;0.80;0.50;;;6.70;1.00;;;;;;5055957;28;20814;-56
2022/02/24 05:36:46;;;;;;;0.93;0.60;;;6.70;1.00;;;;;;5056341;28;20421;-56
2022/02/24 05:39:13;;;;;;;0.80;0.50;;;6.70;1.00;;;;;;5056174;28;20428;-55
2022/02/24 05:41:39;;;;;;;1.00;0.60;;;6.70;1.00;;;;;;5054534;28;20435;-55
2022/02/24 05:44:07;;;;;;;0.85;0.60;;;6.70;1.00;;;;;;5055124;28;20769;-56
2022/02/24 05:46:33;;;;;;;0.90;0.60;;;6.70;1.00;;;;;;5054917;28;20439;-56
2022/02/24 05:49:02;;;;;;;0.90;0.60;;;6.70;1.00;;;;;;5054676;28;20422;-57
2022/02/24 05:51:29;;;;;;;1.73;0.68;;;6.60;1.00;;;;;;5054944;28;20525;-57
2022/02/24 05:53:56;;;;;;;1.00;0.60;;;6.60;1.00;;;;;;5055431;28;20418;-57
2022/02/24 05:56:23;;;;;;;1.00;0.60;;;6.60;1.00;;;;;;5055403;28;20439;-57
2022/02/24 05:58:50;;;;;;;1.40;0.60;;;6.60;1.00;;;;;;5053501;28;20421;-57
2022/02/24 06:01:17;;;;;;;1.10;0.60;;;6.60;1.00;;;;;;5051950;28;20439;-57
2022/02/24 06:03:44;;;;;;;0.95;0.57;;;6.60;1.00;;;;;;5051785;28;20474;-57
2022/02/24 06:06:12;;;;;;;1.60;0.70;;;6.50;1.00;;;;;;5051922;28;20428;-57
2022/02/24 06:08:39;;;;;;;1.25;0.60;;;6.50;1.00;;;;;;5053990;28;20429;-55
2022/02/24 06:11:05;;;;;;;1.80;0.70;;;6.50;1.00;;;;;;5050910;28;20736;-56
2022/02/24 06:13:32;;;;;;;1.30;0.80;;;6.50;1.00;;;;;;5051458;28;20593;-57
2022/02/24 06:16:00;;;;;;;1.80;0.80;;;6.50;1.00;;;;;;5051491;28;20433;-52
2022/02/24 06:18:27;;;;;;;1.20;0.80;;;6.50;1.00;;;;;;5053062;28;20695;-55
2022/02/24 06:20:54;;;;;;;1.13;0.70;;;6.50;1.00;;;;;;5054116;28;20851;-55
2022/02/24 06:23:22;;;;;;;1.20;0.80;;;6.60;1.00;;;;;;5054436;28;20421;-54
2022/02/24 06:25:49;;;;;;;1.60;0.80;;;6.60;1.00;;;;;;5053751;28;20437;-55
2022/02/24 06:28:16;;;;;;;1.90;1.00;;;6.60;1.00;;;;;;5053916;28;20433;-55
2022/02/24 06:30:43;;;;;;;1.20;0.87;;;6.50;1.00;;;;;;5053817;28;20732;-56
2022/02/24 06:33:09;;;;;;;1.40;0.90;;;6.60;1.00;;;;;;5054961;28;20447;-56
2022/02/24 06:35:36;;;;;;;1.52;0.90;;;6.50;1.00;;;;;;5055252;28;20421;-57
2022/02/24 06:38:03;;;;;;;1.60;0.90;;;6.40;1.00;;;;;;5055237;28;20717;-56
2022/02/24 06:40:31;;;;;;;1.45;0.80;;;6.40;1.00;;;;;;5053105;28;20796;-55
2022/02/24 06:42:58;;;;;;;2.27;0.90;;;6.40;9.30;;;;;;5054851;28;20425;-56
2022/02/24 06:45:25;;;;;;;1.23;0.80;;;6.30;5.50;;;;;;5051875;28;20741;-55
2022/02/24 06:47:52;;;;;;;1.60;0.90;;;6.30;14.70;;;;;;5052642;28;20433;-54
2022/02/24 06:50:19;;;;;;;2.30;0.90;;;6.30;17.80;;;;;;5022450;28;20440;-56
2022/02/24 06:52:46;;;;;;;3.10;1.00;;;6.40;8.50;;;;;;5014897;28;20440;-57
2022/02/24 06:55:13;;;;;;;1.55;0.90;;;6.50;5.50;;;;;;5019178;28;20427;-56
2022/02/24 06:57:44;;;;;;;1.80;1.00;;;6.50;2.90;;;;;;5030439;28;20427;-52
2022/02/24 07:00:12;;;;;;;2.27;1.10;;;6.60;1.00;;;;;;5031952;28;20434;-55
2022/02/24 07:02:39;;;;;;;2.40;0.90;;;6.60;1.00;;;;;;5029591;28;20859;-55
2022/02/24 07:05:06;;;;;;;2.38;1.27;;;6.70;1.00;;;;;;5033298;28;20427;-55
2022/02/24 07:07:34;;;;;;;1.43;1.00;;;6.70;1.00;;;;;;5029408;28;20536;-54
2022/02/24 07:10:02;;;;;;;2.85;1.10;;;6.80;1.00;;;;;;5033780;28;20415;-53
2022/02/24 07:12:29;;;;;;;3.50;1.00;;;7.00;1.00;;;;;;5029392;28;20431;-54
2022/02/24 07:14:58;;;;;;;3.50;1.20;;;7.00;1.00;;;;;;5032869;28;20454;-55
2022/02/24 07:17:24;;;;;;;2.65;1.08;;;7.00;1.00;;;;;;5033193;28;20426;-54
2022/02/24 07:19:51;;;;;;;1.73;1.13;;;6.90;1.00;;;;;;5030407;28;20488;-54
2022/02/24 07:22:18;;;;;;;2.20;1.50;;;6.90;1.00;;;;;;5025438;28;20473;-51
2022/02/24 07:24:45;;;;;;;2.05;1.40;;;6.90;1.00;;;;;;5018855;28;20462;-54
2022/02/24 07:27:12;;;;;;;1.70;1.00;;;7.00;1.00;;;;;;5032356;28;20439;-53
2022/02/24 07:29:38;;;;;;;2.00;1.20;;;7.00;1.00;;;;;;5028331;28;20594;-53
2022/02/24 07:32:08;;;;;;;2.00;0.90;;;7.00;1.00;;;;;;5039502;28;20550;-53
2022/02/24 07:34:35;;;;;;;3.60;1.10;;;6.90;1.00;;;;;;5045375;28;20411;-55
2022/02/24 07:37:01;;;;;;;3.40;1.20;;;7.10;1.00;;;;;;5046746;28;20506;-53
2022/02/24 07:39:28;;;;;;;2.30;1.10;;;7.30;1.00;;;;;;5048190;28;20422;-55
2022/02/24 07:41:55;;;;;;;2.13;1.20;;;7.40;1.00;;;;;;5043469;28;20809;-52
2022/02/24 07:44:22;;;;;;;2.50;1.10;;;7.30;1.00;;;;;;5047965;28;20570;-53
2022/02/24 07:46:49;;;;;;;1.70;1.10;;;7.40;1.00;;;;;;5048308;28;20432;-52
2022/02/24 07:49:17;;;;;;;2.20;1.05;;;7.40;1.00;;;;;;5047411;28;20427;-52
2022/02/24 07:51:47;;;;;;;2.53;1.08;;;7.40;1.00;;;;;;5050953;28;20429;-54
2022/02/24 07:54:13;;;;;;;2.40;1.10;;;7.30;1.00;;;;;;5048132;28;20491;-53
2022/02/24 07:56:40;;;;;;;1.80;1.10;;;7.30;1.00;;;;;;5049115;28;20441;-54
2022/02/24 07:59:07;;;;;;;2.20;1.10;;;7.30;1.00;;;;;;5052156;28;20722;-50
2022/02/24 08:01:34;;;;;;;3.10;0.90;;;7.40;1.00;;;;;;5047352;28;20494;-51
2022/02/24 08:04:01;;;;;;;1.20;0.90;;;7.50;1.00;;;;;;5050917;28;20797;-50
2022/02/24 08:06:29;;;;;;;2.38;0.95;;;7.60;1.00;;;;;;5047314;28;20436;-53
2022/02/24 08:08:55;;;;;;;1.38;0.90;;;7.80;1.00;;;;;;5048552;28;20728;-52
2022/02/24 08:11:22;;;;;;;2.50;0.90;;;7.90;1.00;;;;;;5049863;28;20455;-53
2022/02/24 08:13:49;;;;;;;1.30;0.80;;;8.10;1.00;;;;;;5050913;28;20812;-52
2022/02/24 08:16:16;;;;;;;1.90;0.90;;;8.10;1.00;;;;;;5045163;28;20433;-52
2022/02/24 08:18:43;;;;;;;1.80;0.90;;;8.20;99.90;;;;;;5050106;28;20417;-52
2022/02/24 08:21:10;;;;;;;1.42;1.00;;;8.20;99.90;;;;;;5050218;28;20533;-53
2022/02/24 08:23:38;;;;;;;1.20;0.85;;;8.20;99.90;;;;;;5049917;28;20579;-52
2022/02/24 08:26:05;;;;;;;2.28;1.00;;;8.10;99.90;;;;;;5058721;28;20437;-53
2022/02/24 08:28:31;;;;;;;1.83;1.00;;;8.00;99.90;;;;;;5052186;28;20429;-54
2022/02/24 08:30:58;;;;;;;1.70;0.85;;;8.00;99.90;;;;;;5054614;28;20433;-55
2022/02/24 08:33:25;;;;;;;1.53;1.00;;;8.00;1.00;;;;;;5045176;28;20754;-55
2022/02/24 08:35:52;;;;;;;1.90;0.90;;;8.10;99.90;;;;;;5052581;28;20433;-55
2022/02/24 08:38:19;;;;;;;2.88;0.90;;;8.10;99.90;;;;;;5054991;28;20423;-54
2022/02/24 08:40:47;;;;;;;2.20;0.83;;;8.20;99.90;;;;;;5040884;28;20440;-54
2022/02/24 08:43:14;;;;;;;1.23;0.88;;;8.30;99.90;;;;;;5051184;28;20429;-54
2022/02/24 08:45:42;;;;;;;2.47;0.98;;;8.30;82.10;;;;;;5053812;28;20421;-53
2022/02/24 08:48:09;;;;;;;1.40;0.90;;;8.40;1.00;;;;;;5049467;28;20464;-54
2022/02/24 08:50:37;;;;;;;2.60;0.80;;;8.40;1.00;;;;;;5045545;28;20421;-49
2022/02/24 08:53:04;;;;;;;1.20;0.80;;;8.50;1.00;;;;;;5048546;28;20433;-52
2022/02/24 08:55:31;;;;;;;1.98;0.80;;;8.60;1.00;;;;;;5050003;28;20428;-54
2022/02/24 08:58:00;;;;;;;1.90;0.90;;;8.60;1.00;;;;;;5045328;28;20428;-52
2022/02/24 09:00:27;;;;;;;1.50;0.80;;;8.70;99.90;;;;;;5053909;28;20439;-52
2022/02/24 09:02:53;;;;;;;1.00;0.70;;;8.90;1.00;;;;;;5044366;28;20423;-54
2022/02/24 09:05:20;;;;;;;2.47;0.80;;;9.00;1.00;;;;;;5056354;28;20429;-57
2022/02/24 09:07:47;;;;;;;1.60;0.80;;;9.20;1.00;;;;;;5042237;28;21059;-55
2022/02/24 09:10:14;;;;;;;1.42;0.80;;;9.30;1.00;;;;;;5041295;28;20916;-55
2022/02/24 09:12:41;;;;;;;1.27;0.70;;;9.40;1.00;;;;;;5047208;28;20705;-54
2022/02/24 09:15:09;;;;;;;1.67;0.60;;;9.60;99.90;;;;;;5049983;28;20425;-54
2022/02/24 09:17:36;;;;;;;1.00;0.60;;;9.70;8.40;;;;;;5047874;28;20430;-54
2022/02/24 09:20:04;;;;;;;1.10;0.50;;;9.80;1.00;;;;;;5052524;28;20705;-55
2022/02/24 09:22:31;;;;;;;1.10;0.70;;;9.90;1.00;;;;;;5041470;28;20443;-55
2022/02/24 09:24:58;;;;;;;1.40;0.70;;;10.00;99.90;;;;;;5053146;28;20448;-55
2022/02/24 09:27:27;;;;;;;1.80;0.70;;;10.20;99.90;;;;;;5045086;28;20465;-54
2022/02/24 09:29:55;;;;;;;1.27;0.60;;;10.20;60.50;;;;;;5054828;28;20488;-55
2022/02/24 09:32:23;;;;;;;1.10;0.60;;;10.30;25.00;;;;;;5053560;28;20964;-55
2022/02/24 09:34:50;;;;;;;1.27;0.50;;;10.30;1.00;;;;;;5051796;28;20470;-56
2022/02/24 09:37:17;;;;;;;1.00;0.50;;;10.30;1.00;;;;;;5051309;28;20741;-51
2022/02/24 09:39:43;;;;;;;0.90;0.60;;;10.40;1.00;;;;;;5045661;28;20524;-55
2022/02/24 09:42:13;;;;;;;0.82;0.50;;;10.40;1.00;;;;;;5035605;28;20449;-56
2022/02/24 09:44:40;;;;;;;1.20;0.50;;;10.50;1.00;;;;;;5053422;28;20817;-54
2022/02/24 09:47:09;;;;;;;0.80;0.40;;;10.70;1.00;;;;;;5054278;28;20439;-55
2022/02/24 09:49:40;;;;;;;1.70;0.50;;;10.80;1.00;;;;;;5052697;28;20678;-55
2022/02/24 09:52:07;;;;;;;0.82;0.50;;;11.00;99.90;;;;;;5053675;28;20713;-56
2022/02/24 09:54:34;;;;;;;0.80;0.40;;;11.20;99.90;;;;;;5053666;28;20528;-57
2022/02/24 09:57:01;;;;;;;0.90;0.50;;;11.30;99.90;;;;;;5052771;28;20437;-55
2022/02/24 09:59:28;;;;;;;1.20;0.50;;;11.30;99.90;;;;;;5058749;28;20500;-56
2022/02/24 10:01:55;;;;;;;1.20;0.50;;;11.40;99.90;;;;;;5052846;28;20868;-55
2022/02/24 10:04:23;;;;;;;1.70;0.40;;;11.50;99.90;;;;;;5068421;28;20921;-56
2022/02/24 10:06:51;;;;;;;0.75;0.40;;;11.60;99.90;;;;;;5054309;28;20857;-55
2022/02/24 10:09:21;;;;;;;2.85;0.50;;;11.80;99.90;;;;;;5053000;28;20836;-56
2022/02/24 10:11:48;;;;;;;0.90;0.50;;;11.90;99.90;;;;;;5053033;28;20441;-55
2022/02/24 10:14:20;;;;;;;2.10;0.40;;;12.10;99.90;;;;;;5051016;28;20425;-55
2022/02/24 10:16:53;;;;;;;0.90;0.40;;;12.20;74.30;;;;;;5051323;28;20436;-52
2022/02/24 10:19:27;;;;;;;1.05;0.50;;;12.10;28.20;;;;;;5052364;28;20849;-56
2022/02/24 10:22:12;;;;;;;0.60;0.40;;;12.10;21.70;;;;;;5051393;28;20429;-55
2022/02/24 10:24:40;;;;;;;0.60;0.40;;;12.30;1.00;;;;;;5037684;28;20508;-56
2022/02/24 10:27:21;;;;;;;0.70;0.40;;;12.50;1.00;;;;;;5052367;28;20429;-57
2022/02/24 10:30:01;;;;;;;0.80;0.40;;;12.60;1.00;;;;;;5052823;28;20465;-57
2022/02/24 10:32:30;;;;;;;1.30;0.50;;;12.70;1.00;;;;;;5049004;28;20423;-54
2022/02/24 10:35:22;;;;;;;0.87;0.50;;;12.70;1.00;;;;;;5040067;28;20856;-56
2022/02/24 10:37:56;;;;;;;0.90;0.50;;;12.80;1.00;;;;;;5037101;28;20431;-53
2022/02/24 10:40:24;;;;;;;1.10;0.40;;;12.60;1.00;;;;;;5043066;28;20509;-55
2022/02/24 10:42:51;;;;;;;1.10;0.40;;;12.70;1.00;;;;;;5036525;28;20433;-56
2022/02/24 10:45:18;;;;;;;0.90;0.40;;;12.70;1.00;;;;;;5025501;28;20463;-55
2022/02/24 10:48:02;;;;;;;0.80;0.40;;;12.70;1.00;;;;;;5016469;28;20435;-56
2022/02/24 10:51:03;;;;;;;1.60;0.50;;;12.70;1.00;;;;;;5017065;28;20417;-54
2022/02/24 10:53:33;;;;;;;1.00;0.40;;;12.80;1.00;;;;;;5038619;28;20433;-57
2022/02/24 10:56:03;;;;;;;1.00;0.50;;;12.90;1.00;;;;;;5034987;28;20742;-56
2022/02/24 10:58:31;;;;;;;1.20;0.50;;;13.00;1.00;;;;;;5015133;28;20498;-56
2022/02/24 11:01:08;;;;;;;1.20;0.40;;;13.20;1.00;;;;;;5021720;28;20586;-57
2022/02/24 11:03:36;;;;;;;0.60;0.30;;;13.20;1.00;;;;;;5021532;28;20431;-56
2022/02/24 11:06:05;;;;;;;0.80;0.35;;;13.20;1.00;;;;;;5022931;28;20434;-57
2022/02/24 11:08:34;;;;;;;0.50;0.40;;;13.30;1.00;;;;;;5026818;28;20586;-62
2022/02/24 11:11:02;;;;;;;0.70;0.40;;;13.50;1.00;;;;;;5023150;28;20440;-59
2022/02/24 11:13:30;;;;;;;0.70;0.40;;;13.90;1.00;;;;;;5029541;28;20433;-56
2022/02/24 11:15:58;;;;;;;0.80;0.40;;;14.40;1.00;;;;;;5020195;28;20432;-57
2022/02/24 11:18:25;;;;;;;0.68;0.40;;;14.40;1.00;;;;;;5030507;28;20429;-57
2022/02/24 11:20:52;;;;;;;0.70;0.40;;;14.70;1.00;;;;;;5030439;28;20745;-57
2022/02/24 11:23:20;;;;;;;1.02;0.40;;;14.50;1.00;;;;;;5032130;28;20430;-57
2022/02/24 11:25:55;;;;;;;0.75;0.40;;;14.70;1.00;;;;;;5025305;28;20433;-57
2022/02/24 11:28:24;;;;;;;0.60;0.30;;;14.70;1.00;;;;;;5019988;28;20874;-57
2022/02/24 11:30:55;;;;;;;0.50;0.30;;;14.70;1.00;;;;;;5027265;28;20438;-57
2022/02/24 11:33:23;;;;;;;0.90;0.40;;;14.70;1.00;;;;;;5037996;28;20439;-58
2022/02/24 11:36:08;;;;;;;0.60;0.30;;;14.60;1.00;;;;;;5048609;28;20456;-58
2022/02/24 11:38:35;;;;;;;0.70;0.40;;;14.80;1.00;;;;;;5049572;28;20417;-57
2022/02/24 11:41:08;;;;;;;0.65;0.40;;;15.00;1.00;;;;;;5039455;28;20427;-58
2022/02/24 11:43:36;;;;;;;0.50;0.30;;;15.00;1.00;;;;;;5038424;28;20460;-57
2022/02/24 11:46:05;;;;;;;0.50;0.30;;;14.60;1.00;;;;;;5042049;28;20519;-56
2022/02/24 11:48:36;;;;;;;0.60;0.40;;;14.60;1.00;;;;;;5040130;28;20433;-57
2022/02/24 11:51:04;;;;;;;0.60;0.30;;;14.60;1.00;;;;;;5031474;28;20435;-56
2022/02/24 11:53:34;;;;;;;2.53;0.30;;;14.60;1.00;;;;;;5043809;28;20429;-56
2022/02/24 11:56:02;;;;;;;1.02;0.30;;;14.60;1.00;;;;;;5043257;28;20864;-56
2022/02/24 11:58:55;;;;;;;0.68;0.30;;;14.60;1.00;;;;;;5037563;28;20421;-57
2022/02/24 12:01:35;;;;;;;2.40;0.50;;;14.50;1.00;;;;;;5044777;28;20434;-57
2022/02/24 12:04:16;;;;;;;2.00;0.50;;;14.60;1.00;;;;;;5044159;28;20429;-57
2022/02/24 12:06:50;;;;;;;1.30;0.40;;;14.80;1.00;;;;;;5052995;28;20512;-56
2022/02/24 12:09:22;;;;;;;0.75;0.40;;;14.50;1.00;;;;;;5045084;28;20519;-55
2022/02/24 12:11:51;;;;;;;0.80;0.50;;;14.40;1.00;;;;;;5048781;28;20433;-54
2022/02/24 12:14:41;;;;;;;1.40;0.40;;;14.50;1.00;;;;;;5044987;28;20421;-57
2022/02/24 12:17:10;;;;;;;1.00;0.30;;;14.40;1.00;;;;;;5051750;28;20441;-57
2022/02/24 12:19:39;;;;;;;0.80;0.30;;;14.30;1.00;;;;;;5047789;28;20825;-55
2022/02/24 12:22:12;;;;;;;0.70;0.30;;;14.30;1.00;;;;;;5049119;28;20421;-53
2022/02/24 12:24:39;;;;;;;0.80;0.30;;;14.50;1.00;;;;;;5053106;28;20419;-55
2022/02/24 12:27:29;;;;;;;1.40;0.40;;;14.40;1.00;;;;;;5048580;28;20496;-56
2022/02/24 12:30:01;;;;;;;1.20;0.30;;;14.40;1.00;;;;;;5046516;28;20546;-55
2022/02/24 12:32:47;;;;;;;0.60;0.40;;;14.50;1.00;;;;;;5050516;28;20433;-53
2022/02/24 12:35:16;;;;;;;1.02;0.40;;;14.50;1.00;;;;;;5022148;28;20432;-56
2022/02/24 12:37:44;;;;;;;1.02;0.60;;;14.30;1.00;;;;;;5045353;28;20430;-57
2022/02/24 12:40:17;;;;;;;1.50;0.50;;;14.20;1.00;;;;;;5045475;28;20427;-56
2022/02/24 12:42:44;;;;;;;1.50;0.50;;;14.10;1.00;;;;;;5039215;28;20435;-56
2022/02/24 12:45:12;;;;;;;0.90;0.40;;;14.10;1.00;;;;;;5021723;28;20425;-52
2022/02/24 12:47:39;;;;;;;1.80;0.40;;;14.00;1.00;;;;;;5046559;28;20426;-54
2022/02/24 12:50:07;;;;;;;1.00;0.30;;;13.90;1.00;;;;;;5040375;28;20811;-55
2022/02/24 12:52:34;;;;;;;0.70;0.40;;;13.80;1.00;;;;;;5033910;28;20434;-55
2022/02/24 12:55:01;;;;;;;1.20;0.40;;;13.90;1.00;;;;;;5031335;28;20831;-56
2022/02/24 12:57:28;;;;;;;1.00;0.40;;;14.00;1.00;;;;;;5031545;28;20441;-54
2022/02/24 12:59:55;;;;;;;0.70;0.40;;;14.00;1.00;;;;;;5032766;28;20423;-59
2022/02/24 13:02:24;;;;;;;1.10;0.30;;;14.00;1.00;;;;;;5031094;28;20675;-58
2022/02/24 13:04:52;;;;;;;0.60;0.30;;;14.00;1.00;;;;;;5032339;28;20418;-61
2022/02/24 13:10:04;;;;;;;0.60;0.30;;;14.00;1.00;;;;;;5024865;28;20763;-60